Time;durP1;ratioP1;P1;durP2;ratioP2;P2;SDS_P1;SDS_P2;PMS_P1;PMS_P2;Temp;Humidity;BMP_temperature;BMP_pressure;BME280_temperature;BME280_humidity;BME280_pressure;Samples;Min_cycle;Max_cycle;Signal;HPM_P1;HPM_P2
2023/01/23 00:01:15;;;;;;;56.63;50.45;;;12.30;58.50;;;;;;4957827;28;86159;-54
2023/01/23 00:03:41;;;;;;;56.38;50.38;;;12.30;58.50;;;;;;4947923;28;86497;-55
2023/01/23 00:06:11;;;;;;;56.53;50.38;;;12.20;59.20;;;;;;4945883;28;89396;-52
2023/01/23 00:08:37;;;;;;;57.47;51.10;;;12.20;58.70;;;;;;4952686;28;87050;-55
2023/01/23 00:11:05;;;;;;;56.72;50.50;;;12.40;58.50;;;;;;4942412;28;88977;-52
2023/01/23 00:13:31;;;;;;;58.80;51.00;;;12.30;58.50;;;;;;4946253;28;86223;-53
2023/01/23 00:15:57;;;;;;;58.10;51.67;;;12.40;58.40;;;;;;4946552;28;85473;-55
2023/01/23 00:18:23;;;;;;;58.30;51.35;;;12.40;58.60;;;;;;4943805;28;86633;-49
2023/01/23 00:20:48;;;;;;;57.17;50.75;;;12.30;58.90;;;;;;4953543;28;86403;-55
2023/01/23 00:23:14;;;;;;;59.22;52.10;;;12.20;59.10;;;;;;4947722;28;87570;-51
2023/01/23 00:25:40;;;;;;;57.38;51.08;;;12.30;59.10;;;;;;4947557;28;87245;-54
2023/01/23 00:28:06;;;;;;;58.78;52.22;;;12.30;59.10;;;;;;4941833;28;86950;-55
2023/01/23 00:30:32;;;;;;;59.13;51.88;;;12.30;59.00;;;;;;4949258;28;88032;-56
2023/01/23 00:32:58;;;;;;;58.30;51.90;;;12.40;58.90;;;;;;4944337;28;88815;-56
2023/01/23 00:35:24;;;;;;;57.97;51.65;;;12.40;58.80;;;;;;4955274;28;86099;-47
2023/01/23 00:37:49;;;;;;;59.60;52.15;;;12.40;58.80;;;;;;4959508;28;86406;-51
2023/01/23 00:40:15;;;;;;;58.38;51.97;;;12.40;58.80;;;;;;4949946;28;86556;-51
2023/01/23 00:42:41;;;;;;;57.50;51.22;;;12.30;58.80;;;;;;4949547;28;86167;-55
2023/01/23 00:45:07;;;;;;;59.25;52.25;;;12.40;58.90;;;;;;4949686;28;88229;-51
2023/01/23 00:47:32;;;;;;;59.72;52.55;;;12.40;58.80;;;;;;4947280;28;85819;-55
2023/01/23 00:49:58;;;;;;;61.58;53.25;;;12.30;58.90;;;;;;4939657;28;86105;-51
2023/01/23 00:52:26;;;;;;;58.08;51.20;;;12.30;58.90;;;;;;4944695;28;85495;-54
2023/01/23 00:54:52;;;;;;;60.45;52.33;;;12.30;59.00;;;;;;4949817;28;86548;-53
2023/01/23 00:57:18;;;;;;;60.10;52.35;;;12.30;59.00;;;;;;4951266;28;88863;-55
2023/01/23 00:59:44;;;;;;;58.53;52.03;;;12.20;59.00;;;;;;4946865;28;86591;-55
2023/01/23 01:02:09;;;;;;;59.20;51.95;;;12.30;59.10;;;;;;4947937;28;86976;-55
2023/01/23 01:04:35;;;;;;;59.15;52.50;;;12.30;59.50;;;;;;4944937;28;88594;-52
2023/01/23 01:07:00;;;;;;;59.13;52.15;;;12.30;58.80;;;;;;4946585;28;86658;-56
2023/01/23 01:09:26;;;;;;;58.95;52.55;;;12.20;58.90;;;;;;4943611;28;86389;-57
2023/01/23 01:11:52;;;;;;;59.50;52.10;;;12.30;58.90;;;;;;4944759;28;85197;-54
2023/01/23 01:14:18;;;;;;;59.22;52.72;;;12.30;58.90;;;;;;4943229;28;87157;-47
2023/01/23 01:16:45;;;;;;;59.22;52.42;;;12.30;59.00;;;;;;4942240;28;86972;-52
2023/01/23 01:19:15;;;;;;;57.45;51.13;;;12.30;58.90;;;;;;4943522;28;86133;-53
2023/01/23 01:21:41;;;;;;;58.87;51.83;;;12.30;58.90;;;;;;4946012;28;86872;-53
2023/01/23 01:24:07;;;;;;;58.28;51.63;;;12.40;58.80;;;;;;4935536;28;87626;-53
2023/01/23 01:26:33;;;;;;;60.28;52.65;;;12.40;58.80;;;;;;4948844;28;88037;-52
2023/01/23 01:28:58;;;;;;;59.60;52.22;;;12.40;58.90;;;;;;4951120;28;86267;-51
2023/01/23 01:31:24;;;;;;;60.15;52.50;;;12.40;58.80;;;;;;4944292;28;87759;-56
2023/01/23 01:33:50;;;;;;;60.45;52.53;;;12.40;58.90;;;;;;4948559;28;86135;-54
2023/01/23 01:36:19;;;;;;;59.78;53.10;;;12.30;58.80;;;;;;4950597;28;86721;-52
2023/01/23 01:38:45;;;;;;;60.38;53.28;;;12.50;58.50;;;;;;4946348;28;86888;-55
2023/01/23 01:41:11;;;;;;;60.15;53.17;;;12.40;58.50;;;;;;4937604;28;85947;-54
2023/01/23 01:43:38;;;;;;;59.08;52.08;;;12.40;58.40;;;;;;4940407;28;86318;-55
2023/01/23 01:46:09;;;;;;;60.47;52.85;;;12.50;58.30;;;;;;4942882;28;87084;-46
2023/01/23 01:48:40;;;;;;;60.10;52.45;;;12.50;58.40;;;;;;4945337;28;85748;-56
2023/01/23 01:51:30;;;;;;;59.30;52.80;;;12.60;58.20;;;;;;4945927;28;85703;-55
2023/01/23 01:54:08;;;;;;;59.95;52.63;;;12.50;58.20;;;;;;4948286;28;85779;-55
2023/01/23 01:56:46;;;;;;;60.72;53.22;;;12.50;58.10;;;;;;4939040;28;90894;-55
2023/01/23 01:59:12;;;;;;;59.85;52.30;;;12.50;58.10;;;;;;4941703;28;86148;-56
2023/01/23 02:01:40;;;;;;;58.10;51.60;;;12.50;58.20;;;;;;4947370;28;86497;-51
2023/01/23 02:04:07;;;;;;;60.28;52.22;;;12.50;58.00;;;;;;4939757;28;86714;-57
2023/01/23 02:06:32;;;;;;;60.50;52.95;;;12.50;58.00;;;;;;4943040;28;86658;-55
2023/01/23 02:09:23;;;;;;;59.65;52.75;;;12.60;58.10;;;;;;4939590;28;87688;-52
2023/01/23 02:11:49;;;;;;;58.75;52.25;;;12.60;58.00;;;;;;4940995;28;87481;-56
2023/01/23 02:14:15;;;;;;;61.55;52.70;;;12.50;58.00;;;;;;4946716;28;85870;-49
2023/01/23 02:16:45;;;;;;;60.17;52.20;;;12.60;58.00;;;;;;4947258;28;88557;-53
2023/01/23 02:19:39;;;;;;;60.38;52.90;;;12.50;57.90;;;;;;4943363;28;88118;-55
2023/01/23 02:22:25;;;;;;;60.63;52.35;;;12.50;58.00;;;;;;4943521;28;86094;-55
2023/01/23 02:25:17;;;;;;;60.95;53.03;;;12.40;58.10;;;;;;4938814;28;86010;-56
2023/01/23 02:27:43;;;;;;;60.53;52.53;;;12.50;58.00;;;;;;4924336;28;85951;-48
2023/01/23 02:30:09;;;;;;;60.50;52.83;;;12.60;57.90;;;;;;4944683;28;91686;-55
2023/01/23 02:32:35;;;;;;;60.88;53.40;;;12.50;57.90;;;;;;4941457;28;85523;-54
2023/01/23 02:35:14;;;;;;;59.22;51.20;;;12.50;58.00;;;;;;4934840;28;90306;-53
2023/01/23 02:37:44;;;;;;;60.28;52.80;;;12.50;58.00;;;;;;4942887;28;89433;-54
2023/01/23 02:40:11;;;;;;;61.28;53.47;;;12.50;58.00;;;;;;4948388;28;86428;-55
2023/01/23 02:42:41;;;;;;;63.72;53.47;;;12.50;58.00;;;;;;4941487;28;90242;-55
2023/01/23 02:45:07;;;;;;;59.83;52.90;;;12.50;58.10;;;;;;4947462;28;86056;-55
2023/01/23 02:47:33;;;;;;;63.88;53.47;;;12.50;58.10;;;;;;4943894;28;86927;-53
2023/01/23 02:49:59;;;;;;;60.90;52.13;;;12.40;58.90;;;;;;4949771;28;85594;-55
2023/01/23 02:52:24;;;;;;;62.47;53.63;;;12.30;58.60;;;;;;4943891;28;85974;-52
2023/01/23 02:54:50;;;;;;;59.65;52.08;;;12.40;58.60;;;;;;4949666;28;86897;-57
2023/01/23 02:57:16;;;;;;;60.63;52.42;;;12.30;58.60;;;;;;4943939;28;90224;-56
2023/01/23 03:02:26;;;;;;;61.85;53.13;;;12.30;58.80;;;;;;4945499;28;87018;-55
2023/01/23 03:04:52;;;;;;;61.35;52.20;;;12.40;58.70;;;;;;4946982;28;85274;-54
2023/01/23 03:07:17;;;;;;;64.95;54.42;;;12.40;58.70;;;;;;4944872;28;90296;-55
2023/01/23 03:09:46;;;;;;;62.95;53.08;;;12.40;58.60;;;;;;4940216;28;87223;-53
2023/01/23 03:12:13;;;;;;;60.40;52.83;;;12.40;58.60;;;;;;4933245;28;85458;-52
2023/01/23 03:14:40;;;;;;;61.22;53.28;;;12.30;58.30;;;;;;4948209;28;86267;-55
2023/01/23 03:17:06;;;;;;;62.90;53.17;;;12.40;58.40;;;;;;4940592;28;88909;-54
2023/01/23 03:19:31;;;;;;;59.50;52.55;;;12.40;58.30;;;;;;4932607;28;90695;-56
2023/01/23 03:21:57;;;;;;;61.20;53.03;;;12.50;58.20;;;;;;4952611;28;88268;-55
2023/01/23 03:24:23;;;;;;;61.00;52.67;;;12.50;58.00;;;;;;4944811;28;86682;-54
2023/01/23 03:26:50;;;;;;;63.50;53.72;;;12.50;58.20;;;;;;4953536;28;86831;-52
2023/01/23 03:32:06;;;;;;;62.33;53.58;;;12.50;58.10;;;;;;4950520;28;85421;-56
2023/01/23 03:34:32;;;;;;;60.40;53.17;;;12.50;58.10;;;;;;4947352;28;89118;-53
2023/01/23 03:36:59;;;;;;;61.95;53.50;;;12.50;58.20;;;;;;4945286;28;87658;-54
2023/01/23 03:42:08;;;;;;;62.63;53.70;;;12.50;58.10;;;;;;4952692;28;86520;-50
2023/01/23 03:44:34;;;;;;;58.78;52.25;;;12.50;58.00;;;;;;4956263;28;86588;-56
2023/01/23 03:47:00;;;;;;;64.85;54.38;;;12.40;58.10;;;;;;4945949;28;86940;-55
2023/01/23 03:49:26;;;;;;;65.22;53.88;;;12.50;58.00;;;;;;4944995;28;91531;-53
2023/01/23 03:51:52;;;;;;;62.95;53.90;;;12.50;57.90;;;;;;4946924;28;85628;-55
2023/01/23 03:54:17;;;;;;;61.53;53.13;;;12.40;58.10;;;;;;4949051;28;91126;-49
2023/01/23 03:56:43;;;;;;;58.42;51.95;;;12.40;58.10;;;;;;4942660;28;89358;-55
2023/01/23 03:59:10;;;;;;;63.83;54.63;;;12.50;58.00;;;;;;4940224;28;87425;-56
2023/01/23 04:01:36;;;;;;;63.72;54.72;;;12.50;58.00;;;;;;4933652;28;88491;-55
2023/01/23 04:04:02;;;;;;;61.55;53.42;;;12.40;58.00;;;;;;4941165;28;85860;-55
2023/01/23 04:06:28;;;;;;;63.28;53.42;;;12.40;58.10;;;;;;4935893;28;86949;-56
2023/01/23 04:08:55;;;;;;;63.88;53.33;;;12.30;58.20;;;;;;4939874;28;87397;-55
2023/01/23 04:11:21;;;;;;;61.50;54.40;;;12.30;58.60;;;;;;4943940;28;86777;-53
2023/01/23 04:13:47;;;;;;;63.17;53.65;;;12.30;58.20;;;;;;4948468;28;88003;-55
2023/01/23 04:16:13;;;;;;;62.78;53.97;;;12.40;58.20;;;;;;4946462;28;86513;-55
2023/01/23 04:18:39;;;;;;;61.80;53.70;;;12.30;58.10;;;;;;4939110;28;90912;-54
2023/01/23 04:21:04;;;;;;;61.67;54.28;;;12.40;58.80;;;;;;4948938;28;87849;-56
2023/01/23 04:23:30;;;;;;;59.75;52.45;;;12.40;58.20;;;;;;4953580;28;86733;-50
2023/01/23 04:25:56;;;;;;;62.08;54.30;;;12.30;58.20;;;;;;4930338;28;87198;-57
2023/01/23 04:28:23;;;;;;;62.72;53.47;;;12.30;58.30;;;;;;4939297;28;86109;-53
2023/01/23 04:30:50;;;;;;;61.28;54.38;;;12.30;58.40;;;;;;4948587;28;88386;-55
2023/01/23 04:33:17;;;;;;;62.15;54.08;;;12.30;58.30;;;;;;4946234;28;87052;-55
2023/01/23 04:35:57;;;;;;;63.05;53.15;;;12.30;58.40;;;;;;4946133;28;91693;-55
2023/01/23 04:38:24;;;;;;;62.13;53.97;;;12.30;58.40;;;;;;4941041;28;86855;-54
2023/01/23 04:40:51;;;;;;;64.25;52.95;;;12.30;58.30;;;;;;4944627;28;85853;-56
2023/01/23 04:43:16;;;;;;;63.28;54.42;;;12.40;58.30;;;;;;4948993;28;86046;-55
2023/01/23 04:45:45;;;;;;;62.10;53.72;;;12.40;58.20;;;;;;4942249;28;87936;-53
2023/01/23 04:48:12;;;;;;;61.47;52.63;;;12.50;58.20;;;;;;4943454;28;87716;-54
2023/01/23 04:50:38;;;;;;;62.97;53.65;;;12.50;58.00;;;;;;4951717;28;85478;-56
2023/01/23 04:53:04;;;;;;;60.70;52.40;;;12.40;58.10;;;;;;4938940;28;85956;-53
2023/01/23 04:55:30;;;;;;;62.45;52.63;;;12.40;58.20;;;;;;4938511;28;86962;-52
2023/01/23 04:57:56;;;;;;;64.63;54.05;;;12.40;58.20;;;;;;4942517;28;88146;-46
2023/01/23 05:00:22;;;;;;;61.50;52.60;;;12.40;58.10;;;;;;4938812;28;85724;-56
2023/01/23 05:02:48;;;;;;;63.20;54.17;;;12.40;58.30;;;;;;4932692;28;91799;-53
2023/01/23 05:05:16;;;;;;;62.80;53.75;;;12.30;58.30;;;;;;4936701;28;86738;-53
2023/01/23 05:07:43;;;;;;;62.45;53.88;;;12.30;58.30;;;;;;4942179;28;86485;-50
2023/01/23 05:10:10;;;;;;;63.70;54.42;;;12.30;59.00;;;;;;4945628;28;87083;-53
2023/01/23 05:12:35;;;;;;;63.33;54.38;;;12.30;58.30;;;;;;4938281;28;87435;-56
2023/01/23 05:15:01;;;;;;;64.15;54.42;;;12.30;58.20;;;;;;4939084;28;86902;-47
2023/01/23 05:17:27;;;;;;;59.60;52.72;;;12.30;58.20;;;;;;4943518;28;86132;-53
2023/01/23 05:19:52;;;;;;;61.72;53.53;;;12.30;58.20;;;;;;4940774;28;91522;-55
2023/01/23 05:22:18;;;;;;;63.63;54.60;;;12.30;58.40;;;;;;4940781;28;88891;-55
2023/01/23 05:24:44;;;;;;;63.35;54.05;;;12.30;58.40;;;;;;4947593;28;87908;-53
2023/01/23 05:27:11;;;;;;;62.97;54.00;;;12.30;58.50;;;;;;4934931;28;88675;-55
2023/01/23 05:29:36;;;;;;;62.33;53.45;;;12.30;58.40;;;;;;4940713;28;85401;-56
2023/01/23 05:32:02;;;;;;;64.35;54.97;;;12.20;58.40;;;;;;4938796;28;88222;-56
2023/01/23 05:34:28;;;;;;;61.75;53.75;;;12.30;58.50;;;;;;4938098;28;87219;-53
2023/01/23 05:36:54;;;;;;;64.15;54.08;;;12.40;58.20;;;;;;4938184;28;86543;-52
2023/01/23 05:39:19;;;;;;;62.95;54.08;;;12.30;58.20;;;;;;4949060;28;86377;-52
2023/01/23 05:41:45;;;;;;;62.28;53.92;;;12.30;58.40;;;;;;4941012;28;85983;-55
2023/01/23 05:44:11;;;;;;;65.93;55.58;;;12.20;58.50;;;;;;4941141;28;86532;-55
2023/01/23 05:46:36;;;;;;;65.53;54.85;;;12.30;58.30;;;;;;4942241;28;86677;-55
2023/01/23 05:49:02;;;;;;;63.15;54.40;;;12.40;58.20;;;;;;4934018;28;86775;-52
2023/01/23 05:51:30;;;;;;;63.15;54.53;;;12.40;58.00;;;;;;4934621;28;85357;-51
2023/01/23 05:53:57;;;;;;;64.25;54.47;;;12.30;58.20;;;;;;4937617;28;86882;-56
2023/01/23 05:56:22;;;;;;;63.97;54.20;;;12.40;58.20;;;;;;4937637;28;85735;-51
2023/01/23 05:58:48;;;;;;;66.35;54.47;;;12.50;58.10;;;;;;4944796;28;85621;-52
2023/01/23 06:01:13;;;;;;;64.25;55.05;;;12.50;58.00;;;;;;4946803;28;86093;-55
2023/01/23 06:03:39;;;;;;;65.05;54.38;;;12.50;58.10;;;;;;4945644;28;85928;-54
2023/01/23 06:06:05;;;;;;;63.30;53.50;;;12.50;58.30;;;;;;4947054;28;86898;-53
2023/01/23 06:08:31;;;;;;;62.28;52.90;;;12.40;58.40;;;;;;4947045;28;85749;-55
2023/01/23 06:10:57;;;;;;;63.90;54.28;;;12.30;58.70;;;;;;4935456;28;92184;-53
2023/01/23 06:13:24;;;;;;;64.05;54.65;;;12.20;59.00;;;;;;4941267;28;87018;-56
2023/01/23 06:15:50;;;;;;;63.08;54.58;;;12.20;59.00;;;;;;4951076;28;86872;-53
2023/01/23 06:18:16;;;;;;;67.65;55.88;;;12.20;59.00;;;;;;4946151;28;87041;-53
2023/01/23 06:20:41;;;;;;;64.13;54.35;;;12.20;59.20;;;;;;4940448;28;85428;-52
2023/01/23 06:23:07;;;;;;;65.80;55.97;;;12.20;59.20;;;;;;4938700;28;86252;-54
2023/01/23 06:25:33;;;;;;;66.85;55.83;;;12.20;59.60;;;;;;4943663;28;91141;-55
2023/01/23 06:27:58;;;;;;;65.68;55.35;;;12.10;59.80;;;;;;4940756;28;87694;-55
2023/01/23 06:30:24;;;;;;;66.45;55.10;;;12.10;59.80;;;;;;4932827;28;85956;-57
2023/01/23 06:32:50;;;;;;;64.22;53.38;;;12.20;59.50;;;;;;4938260;28;88189;-50
2023/01/23 06:35:15;;;;;;;66.00;54.72;;;12.30;59.60;;;;;;4944806;28;92212;-55
2023/01/23 06:37:41;;;;;;;64.95;55.15;;;12.30;59.70;;;;;;4929962;28;85555;-51
2023/01/23 06:40:11;;;;;;;67.20;55.08;;;12.30;59.60;;;;;;4935938;28;87482;-55
2023/01/23 06:42:38;;;;;;;70.30;55.22;;;12.30;59.50;;;;;;4946444;28;86882;-56
2023/01/23 06:45:05;;;;;;;66.43;54.58;;;12.40;59.60;;;;;;4951584;28;86999;-53
2023/01/23 06:47:31;;;;;;;66.18;55.58;;;12.30;59.60;;;;;;4944330;28;86050;-55
2023/01/23 06:49:56;;;;;;;63.13;53.03;;;12.40;59.70;;;;;;4946681;28;85798;-53
2023/01/23 06:52:22;;;;;;;66.30;54.72;;;12.40;59.40;;;;;;4954589;28;88735;-55
2023/01/23 06:54:48;;;;;;;66.55;54.63;;;12.40;59.50;;;;;;4943512;28;86392;-51
2023/01/23 06:57:13;;;;;;;65.13;55.38;;;12.30;60.30;;;;;;4947133;28;91083;-54
2023/01/23 06:59:40;;;;;;;65.60;54.75;;;12.40;59.90;;;;;;4946553;28;85756;-54
2023/01/23 07:02:05;;;;;;;68.80;55.22;;;12.30;59.80;;;;;;4941400;28;85886;-54
2023/01/23 07:04:31;;;;;;;66.25;55.17;;;12.30;59.90;;;;;;4943365;28;87580;-55
2023/01/23 07:06:57;;;;;;;69.25;56.20;;;12.20;59.90;;;;;;4943719;28;86258;-54
2023/01/23 07:09:23;;;;;;;65.55;55.67;;;12.20;59.60;;;;;;4951910;28;85768;-55
2023/01/23 07:11:49;;;;;;;69.88;55.80;;;12.20;59.70;;;;;;4942810;28;86709;-51
2023/01/23 07:14:14;;;;;;;67.32;55.25;;;12.10;59.80;;;;;;4950495;28;86891;-52
2023/01/23 07:16:40;;;;;;;64.47;54.95;;;12.10;60.40;;;;;;4942111;28;85823;-53
2023/01/23 07:19:06;;;;;;;69.13;56.58;;;12.10;60.50;;;;;;4948505;28;87627;-56
2023/01/23 07:21:32;;;;;;;69.57;57.85;;;12.10;60.40;;;;;;4947652;28;85471;-48
2023/01/23 07:23:57;;;;;;;67.75;56.97;;;12.00;60.90;;;;;;4948196;28;85797;-49
2023/01/23 07:26:23;;;;;;;70.82;56.88;;;11.90;61.40;;;;;;4946656;28;86148;-52
2023/01/23 07:28:49;;;;;;;70.47;57.45;;;11.90;61.50;;;;;;4942048;28;89767;-54
2023/01/23 07:31:15;;;;;;;67.13;56.78;;;11.90;61.60;;;;;;4956305;28;86237;-55
2023/01/23 07:33:41;;;;;;;66.30;56.53;;;12.00;61.80;;;;;;4947017;28;85729;-56
2023/01/23 07:36:07;;;;;;;71.00;57.35;;;12.00;61.60;;;;;;4951137;28;85892;-46
2023/01/23 07:38:33;;;;;;;73.95;57.42;;;12.00;61.40;;;;;;4940306;28;91861;-55
2023/01/23 07:40:59;;;;;;;67.93;57.10;;;12.00;61.40;;;;;;4942219;28;91193;-55
2023/01/23 07:43:26;;;;;;;66.72;56.55;;;12.00;61.30;;;;;;4931971;28;93786;-53
2023/01/23 07:45:52;;;;;;;69.20;57.00;;;11.90;61.20;;;;;;4945069;28;91287;-53
2023/01/23 07:48:17;;;;;;;70.55;57.05;;;11.90;61.60;;;;;;4943460;28;91976;-54
2023/01/23 07:50:43;;;;;;;68.95;57.15;;;12.00;61.70;;;;;;4941965;28;90817;-48
2023/01/23 07:53:09;;;;;;;69.78;56.42;;;12.10;61.60;;;;;;4944948;28;89631;-54
2023/01/23 07:55:37;;;;;;;74.72;57.22;;;12.10;61.30;;;;;;4941834;28;92147;-53
2023/01/23 07:58:03;;;;;;;70.13;56.88;;;12.20;61.20;;;;;;4927809;28;95697;-54
2023/01/23 08:00:28;;;;;;;71.35;58.72;;;12.20;60.90;;;;;;4945684;28;93193;-55
2023/01/23 08:02:54;;;;;;;76.13;61.13;;;12.20;60.80;;;;;;4947026;28;90742;-54
2023/01/23 08:05:20;;;;;;;77.07;61.08;;;12.20;60.80;;;;;;4935316;28;90994;-55
2023/01/23 08:07:46;;;;;;;73.30;60.17;;;12.20;60.80;;;;;;4947054;28;95401;-55
2023/01/23 08:10:11;;;;;;;74.55;59.05;;;12.30;60.90;;;;;;4946915;28;90449;-54
2023/01/23 08:12:37;;;;;;;71.68;58.97;;;12.40;60.80;;;;;;4939957;28;92457;-50
2023/01/23 08:15:03;;;;;;;71.75;58.33;;;12.40;60.50;;;;;;4936512;28;92732;-53
2023/01/23 08:17:29;;;;;;;69.85;57.58;;;12.50;60.30;;;;;;4935218;28;93483;-54
2023/01/23 08:19:55;;;;;;;73.13;59.10;;;12.50;60.30;;;;;;4946410;28;90685;-50
2023/01/23 08:22:20;;;;;;;75.55;60.53;;;12.50;60.10;;;;;;4948513;28;92783;-51
2023/01/23 08:24:47;;;;;;;70.95;58.95;;;12.50;60.20;;;;;;4943614;28;91197;-47
2023/01/23 08:27:13;;;;;;;72.20;59.17;;;12.50;60.20;;;;;;4956084;28;90562;-49
2023/01/23 08:29:38;;;;;;;74.10;59.40;;;12.50;60.40;;;;;;4944664;28;90284;-54
2023/01/23 08:32:04;;;;;;;73.60;58.70;;;12.50;60.00;;;;;;4934818;28;91880;-50
2023/01/23 08:34:30;;;;;;;73.43;58.88;;;12.60;60.10;;;;;;4947305;28;90669;-54
2023/01/23 08:36:56;;;;;;;75.15;58.22;;;12.60;60.00;;;;;;4948398;28;92295;-52
2023/01/23 08:39:23;;;;;;;74.57;59.03;;;12.60;59.90;;;;;;4933850;28;92663;-54
2023/01/23 08:41:49;;;;;;;73.70;58.97;;;12.70;59.90;;;;;;4937913;28;95571;-55
2023/01/23 08:44:15;;;;;;;74.82;59.20;;;12.70;59.90;;;;;;4940881;28;90370;-51
2023/01/23 08:46:42;;;;;;;74.45;59.35;;;12.70;59.60;;;;;;4936594;28;91197;-51
2023/01/23 08:49:07;;;;;;;70.95;58.50;;;12.70;59.70;;;;;;4936534;28;91385;-53
2023/01/23 08:51:33;;;;;;;70.53;58.38;;;12.70;59.60;;;;;;4940509;28;91953;-53
2023/01/23 08:53:59;;;;;;;70.70;58.10;;;12.80;59.60;;;;;;4938058;28;90337;-51
2023/01/23 08:56:25;;;;;;;69.68;58.55;;;12.80;59.50;;;;;;4943757;28;91293;-51
2023/01/23 08:58:51;;;;;;;72.22;58.05;;;12.70;59.40;;;;;;4940684;28;91389;-51
2023/01/23 09:01:22;;;;;;;69.55;57.90;;;12.80;59.40;;;;;;4935953;28;97172;-55
2023/01/23 09:03:48;;;;;;;71.38;57.78;;;12.80;59.30;;;;;;4940712;28;92757;-51
2023/01/23 09:06:16;;;;;;;73.10;58.33;;;12.80;59.20;;;;;;4941377;28;91285;-53
2023/01/23 09:08:42;;;;;;;71.20;57.67;;;12.80;59.30;;;;;;4930107;28;96806;-52
2023/01/23 09:11:10;;;;;;;71.45;58.08;;;12.80;59.30;;;;;;4929742;28;96075;-54
2023/01/23 09:13:36;;;;;;;72.20;58.35;;;12.80;59.30;;;;;;4936671;28;92464;-51
2023/01/23 09:16:04;;;;;;;71.07;58.15;;;12.80;59.30;;;;;;4942571;28;95268;-53
2023/01/23 09:18:29;;;;;;;73.78;57.83;;;12.80;59.30;;;;;;4937451;28;92307;-55
2023/01/23 09:20:57;;;;;;;70.03;57.83;;;12.90;59.30;;;;;;4934457;28;91358;-54
2023/01/23 09:23:23;;;;;;;70.97;57.42;;;12.80;59.10;;;;;;4946379;28;95975;-54
2023/01/23 09:25:49;;;;;;;70.90;58.30;;;12.80;59.00;;;;;;4945362;28;91556;-54
2023/01/23 09:28:15;;;;;;;70.93;58.15;;;12.80;59.80;;;;;;4925945;28;92119;-51
2023/01/23 09:30:41;;;;;;;71.43;57.67;;;12.80;59.30;;;;;;4924725;28;94194;-51
2023/01/23 09:33:07;;;;;;;73.93;58.28;;;12.80;59.20;;;;;;4933280;28;91237;-52
2023/01/23 09:35:33;;;;;;;75.18;57.97;;;12.80;59.50;;;;;;4936701;28;92608;-55
2023/01/23 09:37:59;;;;;;;72.68;57.00;;;12.80;59.60;;;;;;4941287;28;92527;-54
2023/01/23 09:40:31;;;;;;;73.50;58.00;;;12.80;59.50;;;;;;4941088;28;98942;-53
2023/01/23 09:43:15;;;;;;;73.35;57.60;;;12.90;59.60;;;;;;4936150;28;92154;-55
2023/01/23 09:45:45;;;;;;;71.10;57.97;;;12.90;59.40;;;;;;4939320;28;93983;-52
2023/01/23 09:48:28;;;;;;;72.00;57.75;;;13.00;59.40;;;;;;4936002;28;95021;-49
2023/01/23 09:51:00;;;;;;;74.15;57.42;;;13.00;59.10;;;;;;4936873;28;93780;-55
2023/01/23 09:53:34;;;;;;;72.70;57.40;;;13.00;59.10;;;;;;4937503;28;90565;-54
2023/01/23 09:56:35;;;;;;;71.85;56.92;;;13.10;59.30;;;;;;4933080;28;95978;-54
2023/01/23 09:59:16;;;;;;;71.03;57.30;;;13.20;59.10;;;;;;4895033;28;92776;-55
2023/01/23 10:01:42;;;;;;;71.55;57.80;;;13.30;59.10;;;;;;4941774;28;90425;-49
2023/01/23 10:04:11;;;;;;;75.57;58.60;;;13.30;59.10;;;;;;4943122;28;91004;-54
2023/01/23 10:06:54;;;;;;;72.53;58.92;;;13.30;59.00;;;;;;4928763;28;94147;-55
2023/01/23 10:09:23;;;;;;;71.57;57.50;;;13.40;59.10;;;;;;4940754;28;92883;-46
2023/01/23 10:12:14;;;;;;;73.63;57.20;;;13.40;59.20;;;;;;4914912;28;91789;-54
2023/01/23 10:14:48;;;;;;;71.07;56.67;;;13.50;59.10;;;;;;4935312;28;92577;-52
2023/01/23 10:17:50;;;;;;;78.20;58.55;;;13.60;59.30;;;;;;4932597;28;92585;-52
2023/01/23 10:21:04;;;;;;;70.65;57.22;;;13.60;59.00;;;;;;4944825;28;90741;-51
2023/01/23 10:23:38;;;;;;;69.97;56.50;;;13.70;59.20;;;;;;4924518;28;90892;-54
2023/01/23 10:26:23;;;;;;;75.15;56.72;;;13.80;59.10;;;;;;4937166;28;95416;-54
2023/01/23 10:28:57;;;;;;;71.13;56.63;;;13.90;58.80;;;;;;4949005;28;90646;-55
2023/01/23 10:31:34;;;;;;;73.28;57.22;;;14.00;58.70;;;;;;4926055;28;91387;-49
2023/01/23 10:34:08;;;;;;;74.68;57.92;;;14.10;58.50;;;;;;4939461;28;92985;-56
2023/01/23 10:37:10;;;;;;;75.25;58.17;;;14.30;58.00;;;;;;4934324;28;90835;-48
2023/01/23 10:40:11;;;;;;;73.85;57.47;;;14.40;57.50;;;;;;4941928;28;95390;-55
2023/01/23 10:42:37;;;;;;;73.65;57.10;;;14.40;57.00;;;;;;4934908;28;92287;-56
2023/01/23 10:45:04;;;;;;;74.35;58.08;;;14.50;56.90;;;;;;4928320;28;93162;-50
2023/01/23 10:47:42;;;;;;;71.40;57.70;;;14.50;56.70;;;;;;4934438;28;90626;-58
2023/01/23 10:50:09;;;;;;;75.32;57.55;;;14.50;56.50;;;;;;4934765;28;93103;-57
2023/01/23 10:52:40;;;;;;;72.88;57.88;;;14.60;56.40;;;;;;4935728;28;93189;-52
2023/01/23 10:55:25;;;;;;;72.50;56.92;;;14.60;56.40;;;;;;4939463;28;90319;-58
2023/01/23 10:58:01;;;;;;;76.57;58.42;;;14.50;56.30;;;;;;4945474;28;92081;-51
2023/01/23 11:00:38;;;;;;;73.00;57.63;;;14.60;56.10;;;;;;4938717;28;92107;-57
2023/01/23 11:03:19;;;;;;;73.50;56.83;;;14.50;56.10;;;;;;4937031;28;91437;-57
2023/01/23 11:06:01;;;;;;;72.53;57.47;;;14.50;56.10;;;;;;4927833;28;95809;-58
2023/01/23 11:08:27;;;;;;;;;;;14.50;56.10;;;;;;4933964;28;90916;-57
2023/01/23 11:11:10;;;;;;;71.30;57.38;;;14.50;56.00;;;;;;4932070;28;93954;-57
2023/01/23 11:13:36;;;;;;;71.82;56.67;;;14.50;56.10;;;;;;4938086;28;92451;-57
2023/01/23 11:16:01;;;;;;;69.43;56.67;;;14.50;56.00;;;;;;4944510;28;91918;-54
2023/01/23 11:18:38;;;;;;;72.97;57.17;;;14.50;56.10;;;;;;4939315;28;94171;-58
2023/01/23 11:21:04;;;;;;;72.63;57.70;;;14.40;56.70;;;;;;4926965;28;93285;-53
2023/01/23 11:23:32;;;;;;;72.43;56.92;;;14.40;56.00;;;;;;4942935;28;92524;-57
2023/01/23 11:25:57;;;;;;;73.80;57.88;;;14.40;56.00;;;;;;4944479;28;89928;-57
2023/01/23 11:28:29;;;;;;;73.30;57.70;;;14.40;55.90;;;;;;4939273;28;90348;-51
2023/01/23 11:30:58;;;;;;;;;;;14.40;55.90;;;;;;4938509;28;91170;-58
2023/01/23 11:33:24;;;;;;;75.88;58.00;;;14.40;55.90;;;;;;4944082;28;90261;-52
2023/01/23 11:36:08;;;;;;;72.95;57.75;;;14.40;55.90;;;;;;4938998;28;91056;-58
2023/01/23 11:39:01;;;;;;;71.43;57.38;;;14.30;56.00;;;;;;4936623;28;91820;-58
2023/01/23 11:41:32;;;;;;;72.95;57.88;;;14.30;56.60;;;;;;4928146;28;91608;-58
2023/01/23 11:44:00;;;;;;;70.65;57.50;;;14.30;56.10;;;;;;4936578;28;92567;-55
2023/01/23 11:46:39;;;;;;;73.82;57.70;;;14.30;56.00;;;;;;4945710;28;94503;-55
2023/01/23 11:49:31;;;;;;;71.60;57.45;;;14.30;56.00;;;;;;4948859;28;93408;-53
2023/01/23 11:52:22;;;;;;;72.43;57.83;;;14.30;56.00;;;;;;4936244;28;91130;-57
2023/01/23 11:55:05;;;;;;;74.57;58.17;;;14.30;56.00;;;;;;4939273;28;89647;-54
2023/01/23 11:57:57;;;;;;;70.80;57.50;;;14.30;56.00;;;;;;4942432;28;90999;-48
2023/01/23 12:00:25;;;;;;;;;;;14.40;56.10;;;;;;4940460;28;90750;-57
2023/01/23 12:03:20;;;;;;;70.97;57.47;;;14.40;56.00;;;;;;4937153;28;93707;-56
2023/01/23 12:05:51;;;;;;;71.43;57.47;;;14.40;56.20;;;;;;4936428;28;91315;-58
2023/01/23 12:08:46;;;;;;;72.38;57.00;;;14.40;56.20;;;;;;4923291;28;96332;-51
2023/01/23 12:11:15;;;;;;;74.88;58.10;;;14.40;56.10;;;;;;4939703;28;90074;-54
2023/01/23 12:14:06;;;;;;;72.47;58.05;;;14.40;56.20;;;;;;4939564;28;90223;-51
2023/01/23 12:16:59;;;;;;;71.35;56.95;;;14.30;56.20;;;;;;4937984;28;96946;-57
2023/01/23 12:20:00;;;;;;;70.10;57.47;;;14.40;56.20;;;;;;4929276;28;90748;-58
2023/01/23 12:22:35;;;;;;;70.20;57.95;;;14.40;56.40;;;;;;4943316;28;93294;-54
2023/01/23 12:25:19;;;;;;;69.10;56.63;;;14.40;56.40;;;;;;4933361;28;93912;-57
2023/01/23 12:27:47;;;;;;;71.75;57.90;;;14.40;56.70;;;;;;4933250;28;90889;-57
2023/01/23 12:30:45;;;;;;;69.43;57.38;;;14.40;56.60;;;;;;4932930;28;92781;-58
2023/01/23 12:33:41;;;;;;;74.57;58.75;;;14.40;56.70;;;;;;4938113;28;90770;-55
2023/01/23 12:37:01;;;;;;;70.07;57.13;;;14.40;56.90;;;;;;4935241;28;92951;-53
2023/01/23 12:39:29;;;;;;;71.85;57.25;;;14.40;57.00;;;;;;4942580;28;90838;-57
2023/01/23 12:42:02;;;;;;;71.63;57.17;;;14.40;57.20;;;;;;4944445;28;90579;-57
2023/01/23 12:44:34;;;;;;;72.68;57.60;;;14.40;57.20;;;;;;4928690;28;96487;-58
2023/01/23 12:47:15;;;;;;;72.20;57.22;;;14.40;57.40;;;;;;4936379;28;92824;-55
2023/01/23 12:49:55;;;;;;;70.85;57.53;;;14.40;57.40;;;;;;4937372;28;92438;-56